KG-0043 weather

Ak Bashat Airport
Ak Bashat village, Chuy Region, Kyrgyzstan

Public forecast

Using degrees Celsius for public forecast. Weather courtesy of forecast.io.

METAR (pilot weather report)

Closest report is Manas International Airport, 26.2 nm (48.5 km) ENE. Retrieved 2019/03/19 14:30 UTC (4 minutes ago):

UCFM 191430Z 03005MPS CAVOK 07/M03 Q1014 R08/09//95 NOSIG

TAF (pilot weather forecast)

Closest forecast is Manas International Airport, 26.2 nm (48.5 km) ENE. Retrieved 2019/03/19 12:00 UTC (3 hours ago):

TAF UCFM 191039Z 1912/2012 27003G08MPS 9999 SCT050CB TEMPO 1912/1918 32009G14MPS 2000 BLDU BKN020CB PROB40 TEMPO 1912/1918 TS BECMG 1918/1920 12003G08MPS 6000 TEMPO 1918/1924 2000 BR FU FEW007 TEMPO 2000/2004 2000 BR FU FEW007